createdAt,value
2022-11-27T00:01:21.788Z,100861.22
2022-11-27T00:03:49.021Z,100869.44
2022-11-27T00:06:18.167Z,100872.59
2022-11-27T00:08:45.627Z,100871.44
2022-11-27T00:11:14.954Z,100872.72
2022-11-27T00:13:41.992Z,100850.28
2022-11-27T00:16:09.340Z,100842.28
2022-11-27T00:18:36.676Z,100810.50
2022-11-27T00:21:05.963Z,100785.91
2022-11-27T00:23:33.628Z,100754.50
2022-11-27T00:26:00.276Z,100739.75
2022-11-27T00:28:26.917Z,100753.94
2022-11-27T00:30:53.437Z,100778.72
2022-11-27T00:33:20.256Z,100783.13
2022-11-27T00:35:46.807Z,100779.53
2022-11-27T00:38:13.341Z,100781.41
2022-11-27T00:40:40.057Z,100776.78
2022-11-27T00:43:06.585Z,100766.41
2022-11-27T00:45:33.148Z,100779.97
2022-11-27T00:47:59.936Z,100772.75
2022-11-27T00:50:26.455Z,100787.38
2022-11-27T00:52:52.931Z,100786.34
2022-11-27T00:55:20.239Z,100790.59
2022-11-27T00:57:46.730Z,100776.22
2022-11-27T01:00:13.948Z,100770.97
2022-11-27T01:02:40.728Z,100776.25
2022-11-27T01:05:07.949Z,100766.75
2022-11-27T01:07:34.504Z,100754.47
2022-11-27T01:10:01.427Z,100757.38
2022-11-27T01:12:27.934Z,100757.75
2022-11-27T01:14:54.512Z,100762.84
2022-11-27T01:17:21.268Z,100776.97
2022-11-27T01:19:47.760Z,100773.31
2022-11-27T01:22:14.458Z,100784.78
2022-11-27T01:24:41.541Z,100775.19
2022-11-27T01:27:08.332Z,100779.56
2022-11-27T01:29:34.810Z,100782.69
2022-11-27T01:32:01.477Z,100783.19
2022-11-27T01:34:27.960Z,100781.28
2022-11-27T01:36:54.444Z,100787.91
2022-11-27T01:39:21.657Z,100788.16
2022-11-27T01:41:48.815Z,100783.13
2022-11-27T01:44:24.327Z,100777.28
2022-11-27T01:46:57.879Z,100777.88
2022-11-27T01:49:45.063Z,100779.78
2022-11-27T01:52:15.550Z,100783.94
2022-11-27T01:54:48.387Z,100779.69
2022-11-27T01:57:19.057Z,100764.63
2022-11-27T01:59:47.747Z,100761.13
2022-11-27T02:02:14.893Z,100753.09
2022-11-27T02:04:41.727Z,100740.38
2022-11-27T02:07:08.493Z,100743.41
2022-11-27T02:09:35.570Z,100746.50
2022-11-27T02:12:32.429Z,100751.47
2022-11-27T02:15:05.113Z,100749.00
2022-11-27T02:17:53.755Z,100755.88
2022-11-27T02:20:26.092Z,100755.25
2022-11-27T02:23:18.854Z,100766.50
2022-11-27T02:26:04.331Z,100771.19
2022-11-27T02:29:00.933Z,100769.19
2022-11-27T02:31:37.522Z,100769.09
2022-11-27T02:34:23.246Z,100778.50
2022-11-27T02:37:15.491Z,100762.81
2022-11-27T02:40:11.389Z,100765.66
2022-11-27T02:42:42.451Z,100759.72
2022-11-27T02:45:13.708Z,100750.47
2022-11-27T02:47:43.004Z,100730.19
2022-11-27T02:50:14.628Z,100738.00
2022-11-27T02:52:42.213Z,100723.53
2022-11-27T02:55:12.803Z,100716.59
2022-11-27T02:57:40.645Z,100696.50
2022-11-27T03:00:08.539Z,100707.50
2022-11-27T03:02:39.588Z,100697.91
2022-11-27T03:05:10.420Z,100700.13
2022-11-27T03:08:04.323Z,100706.50
2022-11-27T03:10:35.559Z,100698.78
2022-11-27T03:13:03.415Z,100692.75
2022-11-27T03:15:55.833Z,100697.09
2022-11-27T03:18:48.155Z,100699.66
2022-11-27T03:21:28.910Z,100696.69
2022-11-27T03:23:55.674Z,100700.88
2022-11-27T03:26:22.235Z,100686.31
2022-11-27T03:28:51.081Z,100684.25
2022-11-27T03:31:18.017Z,100678.94
2022-11-27T03:33:44.918Z,100672.44
2022-11-27T03:36:14.147Z,100685.19
2022-11-27T03:38:41.238Z,100687.53
2022-11-27T03:41:26.865Z,100678.06
2022-11-27T03:44:22.883Z,100692.09
2022-11-27T03:46:58.484Z,100688.38
2022-11-27T03:49:40.468Z,100684.66
2022-11-27T03:52:27.046Z,100681.34
2022-11-27T03:55:05.163Z,100694.47
2022-11-27T03:57:44.644Z,100695.28
2022-11-27T04:00:11.958Z,100707.34
2022-11-27T04:02:48.500Z,100715.75
2022-11-27T04:05:15.338Z,100706.03
2022-11-27T04:07:42.480Z,100710.34
2022-11-27T04:10:10.459Z,100717.19
2022-11-27T04:12:37.270Z,100720.47
2022-11-27T04:15:04.658Z,100711.34
2022-11-27T04:17:31.456Z,100701.84
2022-11-27T04:19:58.020Z,100705.25
2022-11-27T04:22:24.832Z,100702.16
2022-11-27T04:24:51.600Z,100695.75
2022-11-27T04:27:18.419Z,100688.53
2022-11-27T04:29:44.907Z,100688.13
2022-11-27T04:32:11.533Z,100685.56
2022-11-27T04:34:38.183Z,100692.38
2022-11-27T04:37:04.939Z,100696.25
2022-11-27T04:39:31.680Z,100697.56
2022-11-27T04:41:58.160Z,100692.22
2022-11-27T04:44:24.685Z,100692.97
2022-11-27T04:46:51.416Z,100687.16
2022-11-27T04:49:17.955Z,100697.22
2022-11-27T04:51:44.603Z,100694.00
2022-11-27T04:54:11.702Z,100699.81
2022-11-27T04:56:38.199Z,100689.78
2022-11-27T04:59:05.462Z,100685.75
2022-11-27T05:01:32.231Z,100682.53
2022-11-27T05:03:58.825Z,100674.13
2022-11-27T05:06:25.450Z,100670.94
2022-11-27T05:08:59.706Z,100671.13
2022-11-27T05:11:26.312Z,100666.00
2022-11-27T05:14:15.119Z,100672.25
2022-11-27T05:16:42.030Z,100658.25
2022-11-27T05:19:11.808Z,100665.00
2022-11-27T05:21:38.743Z,100661.25
2022-11-27T05:24:05.777Z,100651.47
2022-11-27T05:26:32.835Z,100648.44
2022-11-27T05:28:59.443Z,100648.22
2022-11-27T05:31:26.201Z,100639.34
2022-11-27T05:33:52.955Z,100640.31
2022-11-27T05:36:19.637Z,100639.28
2022-11-27T05:38:46.443Z,100646.59
2022-11-27T05:41:13.084Z,100640.38
2022-11-27T05:43:39.721Z,100638.13
2022-11-27T05:46:07.464Z,100627.81
2022-11-27T05:48:35.105Z,100629.31
2022-11-27T05:51:01.747Z,100628.06
2022-11-27T05:53:28.490Z,100626.59
2022-11-27T05:55:55.255Z,100629.09
2022-11-27T05:58:21.830Z,100618.94
2022-11-27T06:00:48.321Z,100607.19
2022-11-27T06:03:14.988Z,100613.88
2022-11-27T06:05:42.015Z,100618.31
2022-11-27T06:08:08.573Z,100610.47
2022-11-27T06:10:35.100Z,100622.88
2022-11-27T06:13:01.697Z,100627.63
2022-11-27T06:15:28.202Z,100635.13
2022-11-27T06:17:54.814Z,100626.19
2022-11-27T06:20:21.709Z,100632.69
2022-11-27T06:22:48.254Z,100619.81
2022-11-27T06:25:14.974Z,100619.97
2022-11-27T06:27:41.604Z,100626.88
2022-11-27T06:30:09.300Z,100631.63
2022-11-27T06:32:35.868Z,100642.91
2022-11-27T06:35:02.434Z,100632.50
2022-11-27T06:37:28.911Z,100607.47
2022-11-27T06:39:55.485Z,100592.84
2022-11-27T06:42:22.306Z,100580.94
2022-11-27T06:44:48.826Z,100578.91
2022-11-27T06:47:15.359Z,100586.19
2022-11-27T06:49:41.919Z,100594.34
2022-11-27T06:52:08.405Z,100588.34
2022-11-27T06:54:34.937Z,100582.75
2022-11-27T06:57:02.171Z,100572.09
2022-11-27T06:59:28.814Z,100580.84
2022-11-27T07:01:55.519Z,100588.44
2022-11-27T07:04:22.428Z,100584.31
2022-11-27T07:06:49.001Z,100589.91
2022-11-27T07:09:15.683Z,100586.00
2022-11-27T07:11:42.243Z,100572.81
2022-11-27T07:14:09.995Z,100570.03
2022-11-27T07:16:36.723Z,100567.00
2022-11-27T07:19:07.849Z,100569.03
2022-11-27T07:21:36.990Z,100558.56
2022-11-27T07:24:03.789Z,100537.81
2022-11-27T07:26:30.936Z,100543.56
2022-11-27T07:28:57.544Z,100545.81
2022-11-27T07:31:30.409Z,100547.31
2022-11-27T07:33:57.532Z,100543.75
2022-11-27T07:36:29.680Z,100549.84
2022-11-27T07:38:56.737Z,100552.19
2022-11-27T07:41:23.398Z,100552.25
2022-11-27T07:43:50.194Z,100545.31
2022-11-27T07:46:20.499Z,100543.44
2022-11-27T07:48:47.782Z,100549.09
2022-11-27T07:51:17.215Z,100552.66
2022-11-27T07:53:44.670Z,100553.66
2022-11-27T07:56:13.188Z,100563.97
2022-11-27T07:58:40.181Z,100557.66
2022-11-27T08:01:08.688Z,100565.03
2022-11-27T08:03:36.030Z,100550.94
2022-11-27T08:06:02.638Z,100546.72
2022-11-27T08:08:29.392Z,100550.56
2022-11-27T08:10:55.961Z,100554.81
2022-11-27T08:13:22.624Z,100559.94
2022-11-27T08:15:49.189Z,100548.22
2022-11-27T08:18:15.824Z,100555.25
2022-11-27T08:20:42.441Z,100555.78
2022-11-27T08:23:08.924Z,100540.91
2022-11-27T08:25:37.633Z,100549.94
2022-11-27T08:28:04.297Z,100542.91
2022-11-27T08:30:30.779Z,100550.34
2022-11-27T08:32:57.351Z,100558.78
2022-11-27T08:35:23.919Z,100564.50
2022-11-27T08:37:50.717Z,100565.66
2022-11-27T08:40:17.348Z,100566.44
2022-11-27T08:42:43.888Z,100577.16
2022-11-27T08:45:10.600Z,100582.84
2022-11-27T08:47:37.212Z,100573.03
2022-11-27T08:50:03.925Z,100563.97
2022-11-27T08:52:30.487Z,100562.47
2022-11-27T08:54:58.042Z,100556.34
2022-11-27T08:57:24.836Z,100544.94
2022-11-27T08:59:51.312Z,100547.91
2022-11-27T09:02:17.939Z,100548.34
2022-11-27T09:04:44.538Z,100539.09
2022-11-27T09:07:14.314Z,100526.00
2022-11-27T09:09:41.205Z,100522.16
2022-11-27T09:12:08.128Z,100526.34
2022-11-27T09:14:34.626Z,100527.72
2022-11-27T09:17:01.267Z,100527.38
2022-11-27T09:19:27.966Z,100524.75
2022-11-27T09:21:54.464Z,100531.44
2022-11-27T09:24:21.132Z,100530.31
2022-11-27T09:26:47.687Z,100530.31
2022-11-27T09:29:14.434Z,100524.31
2022-11-27T09:31:41.059Z,100511.94
2022-11-27T09:34:07.809Z,100512.53
2022-11-27T09:36:34.337Z,100503.19
2022-11-27T09:39:00.969Z,100501.44
2022-11-27T09:41:50.484Z,100494.97
2022-11-27T09:44:39.884Z,100478.28
2022-11-27T09:47:23.947Z,100476.41
2022-11-27T09:50:17.186Z,100473.47
2022-11-27T09:53:05.373Z,100474.69
2022-11-27T09:55:44.377Z,100467.19
2022-11-27T09:58:32.348Z,100469.81
2022-11-27T10:00:58.929Z,100458.66
2022-11-27T10:03:27.627Z,100461.81
2022-11-27T10:06:10.400Z,100466.00
2022-11-27T10:08:42.827Z,100470.38
2022-11-27T10:11:31.704Z,100463.00
2022-11-27T10:14:35.823Z,100452.06
2022-11-27T10:17:17.434Z,100446.41
2022-11-27T10:19:53.178Z,100447.06
2022-11-27T10:22:23.821Z,100441.41
2022-11-27T10:25:00.895Z,100438.13
2022-11-27T10:27:43.519Z,100442.78
2022-11-27T10:30:19.324Z,100437.09
2022-11-27T10:32:56.798Z,100428.97
2022-11-27T10:35:29.148Z,100411.75
2022-11-27T10:38:17.845Z,100404.53
2022-11-27T10:41:28.384Z,100412.44
2022-11-27T10:44:30.273Z,100402.06
2022-11-27T10:47:02.741Z,100398.22
2022-11-27T10:49:29.746Z,100387.47
2022-11-27T10:51:56.706Z,100382.78
2022-11-27T10:54:42.954Z,100381.16
2022-11-27T10:57:46.717Z,100375.75
2022-11-27T11:00:24.008Z,100382.97
2022-11-27T11:02:59.745Z,100386.94
2022-11-27T11:05:56.832Z,100371.34
2022-11-27T11:08:18.363Z,100368.97
2022-11-27T11:10:57.379Z,100361.56
2022-11-27T11:13:28.482Z,100347.34
2022-11-27T11:16:06.976Z,100332.72
2022-11-27T11:18:43.535Z,100323.97
2022-11-27T11:21:17.315Z,100321.72
2022-11-27T11:23:46.946Z,100304.53
2022-11-27T11:26:49.059Z,100299.91
2022-11-27T11:29:26.770Z,100276.72
2022-11-27T11:31:55.134Z,100267.09
2022-11-27T11:34:26.076Z,100269.81
2022-11-27T11:37:08.107Z,100279.31
2022-11-27T11:40:03.522Z,100280.78
2022-11-27T11:42:32.711Z,100278.56
2022-11-27T11:45:17.451Z,100269.16
2022-11-27T11:47:49.390Z,100255.25
2022-11-27T11:50:41.103Z,100256.94
2022-11-27T11:53:37.702Z,100243.91
2022-11-27T11:56:08.282Z,100232.44
2022-11-27T11:58:47.380Z,100231.78
2022-11-27T12:01:32.502Z,100220.66
2022-11-27T12:04:46.709Z,100219.22
2022-11-27T12:07:32.888Z,100224.25
2022-11-27T12:10:15.240Z,100214.25
2022-11-27T12:13:21.050Z,100192.69
2022-11-27T12:16:17.061Z,100198.13
2022-11-27T12:19:04.395Z,100198.03
2022-11-27T12:21:47.278Z,100190.16
2022-11-27T12:24:45.831Z,100188.91
2022-11-27T12:27:21.410Z,100173.25
2022-11-27T12:30:02.241Z,100159.25
2022-11-27T12:32:56.047Z,100152.13
2022-11-27T12:35:31.228Z,100141.22
2022-11-27T12:38:19.386Z,100148.88
2022-11-27T12:41:21.701Z,100135.53
2022-11-27T12:43:52.418Z,100122.53
2022-11-27T12:46:26.941Z,100128.84
2022-11-27T12:49:01.658Z,100131.59
2022-11-27T12:51:34.061Z,100122.53
2022-11-27T12:54:09.729Z,100131.72
2022-11-27T12:56:44.915Z,100130.94
2022-11-27T12:59:35.142Z,100120.91
2022-11-27T13:02:04.502Z,100117.75
2022-11-27T13:04:44.412Z,100114.78
2022-11-27T13:07:20.437Z,100114.69
2022-11-27T13:10:23.758Z,100102.38
2022-11-27T13:13:05.060Z,100087.78
2022-11-27T13:15:39.533Z,100092.41
2022-11-27T13:18:15.956Z,100092.06
2022-11-27T13:20:46.226Z,100096.56
2022-11-27T13:23:15.547Z,100088.97
2022-11-27T13:25:47.596Z,100070.38
2022-11-27T13:28:24.765Z,100068.84
2022-11-27T13:30:52.148Z,100060.88
2022-11-27T13:33:38.296Z,100060.97
2022-11-27T13:36:08.203Z,100052.69
2022-11-27T13:38:37.491Z,100051.81
2022-11-27T13:41:06.259Z,100048.88
2022-11-27T13:43:42.662Z,100040.53
2022-11-27T13:46:20.203Z,100029.06
2022-11-27T13:48:57.691Z,100026.50
2022-11-27T13:51:39.171Z,100018.44
2022-11-27T13:54:24.594Z,100022.28
2022-11-27T13:56:54.110Z,100012.75
2022-11-27T13:59:23.473Z,100004.94
2022-11-27T14:01:53.976Z,100008.91
2022-11-27T14:04:20.493Z,100007.72
2022-11-27T14:06:55.877Z,100011.88
2022-11-27T14:09:41.580Z,100008.91
2022-11-27T14:12:34.415Z,100019.78
2022-11-27T14:15:23.372Z,100013.44
2022-11-27T14:17:51.999Z,100013.19
2022-11-27T14:20:18.545Z,100015.50
2022-11-27T14:23:11.151Z,100015.66
2022-11-27T14:25:38.746Z,100019.06
2022-11-27T14:28:25.965Z,100011.59
2022-11-27T14:30:58.221Z,100015.88
2022-11-27T14:33:25.862Z,100009.91
2022-11-27T14:35:57.717Z,100019.66
2022-11-27T14:38:26.022Z,100025.16
2022-11-27T14:40:55.040Z,100019.41
2022-11-27T14:43:28.551Z,100020.97
2022-11-27T14:45:58.840Z,100011.00
2022-11-27T14:48:27.504Z,99988.34
2022-11-27T14:50:55.718Z,100004.22
2022-11-27T14:53:24.951Z,99997.19
2022-11-27T14:55:54.750Z,99990.88
2022-11-27T14:58:25.879Z,99989.59
2022-11-27T15:00:56.350Z,99979.06
2022-11-27T15:03:25.286Z,99965.88
2022-11-27T15:06:03.968Z,99970.91
2022-11-27T15:08:34.969Z,99968.69
2022-11-27T15:11:02.388Z,99966.28
2022-11-27T15:13:35.511Z,99963.28
2022-11-27T15:16:13.914Z,99955.22
2022-11-27T15:18:42.155Z,99943.59
2022-11-27T15:21:16.325Z,99952.59
2022-11-27T15:23:47.542Z,99943.97
2022-11-27T15:26:25.831Z,99945.91
2022-11-27T15:28:57.507Z,99936.69
2022-11-27T15:31:39.898Z,99940.13
2022-11-27T15:34:06.748Z,99935.94
2022-11-27T15:36:58.744Z,99931.22
2022-11-27T15:39:54.651Z,99931.47
2022-11-27T15:42:21.974Z,99923.03
2022-11-27T15:44:53.841Z,99929.66
2022-11-27T15:47:22.793Z,99934.94
2022-11-27T15:49:50.017Z,99918.59
2022-11-27T15:52:16.524Z,99918.22
2022-11-27T15:54:43.559Z,99913.13
2022-11-27T15:57:10.725Z,99917.22
2022-11-27T15:59:37.527Z,99911.94
2022-11-27T16:02:04.891Z,99912.28
2022-11-27T16:04:31.455Z,99906.22
2022-11-27T16:06:57.960Z,99906.97
2022-11-27T16:09:24.741Z,99904.03
2022-11-27T16:11:51.293Z,99910.81
2022-11-27T16:14:18.135Z,99906.97
2022-11-27T16:16:44.907Z,99903.69
2022-11-27T16:19:12.420Z,99901.97
2022-11-27T16:21:39.250Z,99891.56
2022-11-27T16:24:08.188Z,99888.06
2022-11-27T16:26:36.763Z,99891.50
2022-11-27T16:29:04.057Z,99897.47
2022-11-27T16:31:30.900Z,99885.53
2022-11-27T16:33:57.597Z,99880.09
2022-11-27T16:36:24.450Z,99877.16
2022-11-27T16:38:55.818Z,99885.03
2022-11-27T16:41:23.330Z,99882.09
2022-11-27T16:43:52.841Z,99876.91
2022-11-27T16:46:27.867Z,99881.25
2022-11-27T16:48:56.153Z,99884.69
2022-11-27T16:51:24.881Z,99881.72
2022-11-27T16:53:54.163Z,99891.91
2022-11-27T16:56:23.932Z,99883.19
2022-11-27T16:58:51.392Z,99872.22
2022-11-27T17:01:23.771Z,99862.41
2022-11-27T17:03:51.074Z,99867.91
2022-11-27T17:06:20.963Z,99872.25
2022-11-27T17:08:47.665Z,99864.63
2022-11-27T17:11:22.843Z,99858.72
2022-11-27T17:13:49.683Z,99869.41
2022-11-27T17:16:16.625Z,99860.50
2022-11-27T17:18:45.597Z,99865.41
2022-11-27T17:21:18.392Z,99859.34
2022-11-27T17:23:46.839Z,99854.94
2022-11-27T17:26:15.873Z,99850.16
2022-11-27T17:28:42.443Z,99833.38
2022-11-27T17:31:15.296Z,99825.91
2022-11-27T17:33:42.434Z,99838.91
2022-11-27T17:36:09.681Z,99827.19
2022-11-27T17:38:36.590Z,99828.25
2022-11-27T17:41:08.842Z,99817.25
2022-11-27T17:43:37.268Z,99826.56
2022-11-27T17:46:13.651Z,99805.81
2022-11-27T17:48:40.461Z,99807.66
2022-11-27T17:51:07.113Z,99816.00
2022-11-27T17:53:34.129Z,99806.06
2022-11-27T17:56:05.469Z,99797.72
2022-11-27T17:58:32.016Z,99800.88
2022-11-27T18:00:58.795Z,99796.91
2022-11-27T18:03:25.683Z,99780.38
2022-11-27T18:05:52.239Z,99792.91
2022-11-27T18:08:18.807Z,99787.69
2022-11-27T18:10:45.761Z,99786.44
2022-11-27T18:13:12.464Z,99789.78
2022-11-27T18:15:39.186Z,99781.84
2022-11-27T18:18:07.303Z,99777.16
2022-11-27T18:20:33.883Z,99774.88
2022-11-27T18:23:00.424Z,99779.16
2022-11-27T18:25:27.288Z,99785.84
2022-11-27T18:27:53.785Z,99771.97
2022-11-27T18:30:20.460Z,99783.13
2022-11-27T18:32:47.013Z,99783.41
2022-11-27T18:35:13.633Z,99777.50
2022-11-27T18:37:40.163Z,99784.44
2022-11-27T18:40:07.994Z,99770.97
2022-11-27T18:42:34.730Z,99771.97
2022-11-27T18:45:01.749Z,99763.41
2022-11-27T18:47:28.427Z,99757.34
2022-11-27T18:49:55.935Z,99752.19
2022-11-27T18:52:22.598Z,99751.03
2022-11-27T18:54:49.190Z,99743.63
2022-11-27T18:57:15.763Z,99749.91
2022-11-27T18:59:45.301Z,99740.41
2022-11-27T19:02:12.410Z,99736.97
2022-11-27T19:04:39.219Z,99747.72
2022-11-27T19:07:06.392Z,99744.28
2022-11-27T19:09:33.853Z,99747.66
2022-11-27T19:12:00.480Z,99735.53
2022-11-27T19:14:27.245Z,99746.03
2022-11-27T19:16:54.059Z,99736.38
2022-11-27T19:22:09.680Z,99728.03
2022-11-27T19:24:37.542Z,99719.06
2022-11-27T19:27:04.212Z,99721.28
2022-11-27T19:29:30.944Z,99721.56
2022-11-27T19:31:59.055Z,99724.22
2022-11-27T19:34:25.906Z,99720.25
2022-11-27T19:36:53.186Z,99713.16
2022-11-27T19:39:19.909Z,99707.28
2022-11-27T19:41:46.414Z,99702.88
2022-11-27T19:44:13.808Z,99696.38
2022-11-27T19:46:41.154Z,99705.09
2022-11-27T19:49:12.456Z,99698.72
2022-11-27T19:51:39.444Z,99699.63
2022-11-27T19:54:10.396Z,99698.47
2022-11-27T19:56:38.851Z,99695.53
2022-11-27T19:59:06.966Z,99694.63
2022-11-27T20:01:33.626Z,99688.59
2022-11-27T20:04:02.056Z,99698.72
2022-11-27T20:06:28.748Z,99693.84
2022-11-27T20:09:01.009Z,99689.97
2022-11-27T20:11:34.201Z,99698.84
2022-11-27T20:14:01.428Z,99692.41
2022-11-27T20:16:28.373Z,99686.78
2022-11-27T20:18:55.265Z,99686.38
2022-11-27T20:21:24.233Z,99678.03
2022-11-27T20:23:53.392Z,99665.63
2022-11-27T20:26:22.997Z,99666.38
2022-11-27T20:28:50.961Z,99666.94
2022-11-27T20:31:24.235Z,99683.16
2022-11-27T20:33:52.673Z,99679.91
2022-11-27T20:36:22.151Z,99666.78
2022-11-27T20:38:49.840Z,99670.81
2022-11-27T20:41:18.649Z,99675.06
2022-11-27T20:43:45.473Z,99689.22
2022-11-27T20:46:13.901Z,99674.13
2022-11-27T20:48:40.598Z,99678.78
2022-11-27T20:51:09.433Z,99679.63
2022-11-27T20:53:37.184Z,99668.84
2022-11-27T20:56:08.719Z,99670.75
2022-11-27T20:58:35.746Z,99660.59
2022-11-27T21:01:02.801Z,99667.66
2022-11-27T21:03:30.108Z,99669.56
2022-11-27T21:05:56.596Z,99665.81
2022-11-27T21:08:23.369Z,99667.16
2022-11-27T21:10:50.629Z,99665.78
2022-11-27T21:13:17.401Z,99681.44
2022-11-27T21:15:48.220Z,99668.53
2022-11-27T21:18:15.516Z,99680.53
2022-11-27T21:20:42.640Z,99674.41
2022-11-27T21:23:09.276Z,99660.59
2022-11-27T21:25:38.289Z,99661.16
2022-11-27T21:28:04.919Z,99655.13
2022-11-27T21:30:31.623Z,99661.94
2022-11-27T21:32:58.296Z,99659.44
2022-11-27T21:35:30.083Z,99652.56
2022-11-27T21:37:58.790Z,99653.63
2022-11-27T21:40:25.338Z,99653.44
2022-11-27T21:42:52.853Z,99677.06
2022-11-27T21:45:19.468Z,99670.56
2022-11-27T21:47:46.072Z,99668.06
2022-11-27T21:50:13.723Z,99661.28
2022-11-27T21:52:40.454Z,99661.56
2022-11-27T21:55:11.803Z,99670.16
2022-11-27T21:57:38.837Z,99671.47
2022-11-27T22:00:06.262Z,99677.31
2022-11-27T22:02:32.954Z,99678.78
2022-11-27T22:04:59.535Z,99687.25
2022-11-27T22:07:26.274Z,99696.78
2022-11-27T22:09:52.775Z,99693.25
2022-11-27T22:12:19.279Z,99689.59
2022-11-27T22:14:45.888Z,99692.63
2022-11-27T22:17:12.459Z,99691.63
2022-11-27T22:19:42.360Z,99687.63
2022-11-27T22:22:08.977Z,99701.31
2022-11-27T22:24:35.576Z,99694.78
2022-11-27T22:27:02.495Z,99696.78
2022-11-27T22:29:29.106Z,99686.72
2022-11-27T22:31:55.826Z,99686.69
2022-11-27T22:34:22.324Z,99675.25
2022-11-27T22:36:48.975Z,99678.38
2022-11-27T22:39:15.747Z,99686.06
2022-11-27T22:41:42.667Z,99678.44
2022-11-27T22:44:15.299Z,99677.47
2022-11-27T22:46:42.519Z,99677.59
2022-11-27T22:49:10.791Z,99665.03
2022-11-27T22:51:37.519Z,99674.13
2022-11-27T22:54:05.867Z,99687.59
2022-11-27T22:56:33.791Z,99688.59
2022-11-27T22:59:24.773Z,99700.59
2022-11-27T23:01:48.658Z,99707.81
2022-11-27T23:04:15.710Z,99690.66
2022-11-27T23:06:44.479Z,99693.56
2022-11-27T23:09:11.110Z,99692.41
2022-11-27T23:11:37.764Z,99683.34
2022-11-27T23:14:04.288Z,99678.50
2022-11-27T23:16:30.956Z,99681.66
2022-11-27T23:18:57.739Z,99684.69
2022-11-27T23:21:24.919Z,99684.38
2022-11-27T23:23:51.844Z,99687.16
2022-11-27T23:26:20.944Z,99688.59
2022-11-27T23:28:49.633Z,99677.25
2022-11-27T23:31:30.782Z,99679.03
2022-11-27T23:33:58.970Z,99681.28
2022-11-27T23:36:25.855Z,99677.31
2022-11-27T23:38:52.748Z,99679.34
2022-11-27T23:41:22.316Z,99677.56
2022-11-27T23:43:49.792Z,99676.75
2022-11-27T23:46:18.938Z,99681.56
2022-11-27T23:48:45.641Z,99682.31
2022-11-27T23:51:21.036Z,99684.25
2022-11-27T23:53:48.082Z,99683.88
2022-11-27T23:56:17.479Z,99675.09
2022-11-27T23:58:47.415Z,99668.16
